Air Navigation Services of Czech Republic
Airport: LKKB Updated:  20.01.2017 20:06:13  UTC
 METAR LKKB 20.01. 20:00 ...
METAR LKKB 202000Z VRB03KT 3000 BR BKN031 M07/M08 Q1034 NOSIG =
 TAF LKKB 20.01. 17:00 AMD
TAF AMD LKKB 201700Z 2018/2118 VRB02KT 1000 BR BKN030      TEMPO 2018/2108 0600 FZFG BKN002      PROB30 TEMPO 2018/2106 0400 FZFG OVC001      BECMG 2108/2110 2500 BR NSC=